Star Kamila — V7HG5 — position and weather

sailwx.info

Track history (hours):
 
Tides and Currents Weather Stations Pressure Air Temp Water Temp Dewpoint Dewpoint Depression Visibility Wind Speed Wind Dir Waves Ship Positions

Star Kamila

Last reported at 2018-Jul-19 11:10 UTC. Time now 2018-Jul-21 03:27 UTC.
Position S 30°03' E 031°10'.

Length 229 m; draft 7.1 m.

Type: Cargo ship. MMSI: 538002227.

Date/timePositionNaut miles runAvg speedWind from/ knotsBaromVisibWave heightAir tempDewpointWater temp
2018-Jul-19 11:10S 30°03' E 031°10'210.7
2018-Jul-19 11:00S 30°01' E 031°11'510.1
2018-Jul-19 10:30S 29°56' E 031°10'610.8
2018-Jul-19 09:59S 29°51' E 031°06'3 6.1
2018-Jul-19 09:29S 29°53' E 031°03'1 1.7
2018-Jul-19 08:58S 29°52' E 031°02'0 0.0
2018-Jul-19 07:28S 29°52' E 031°02'0 0.0
2018-Jul-19 06:22S 29°52' E 031°02'0 0.0
2018-Jul-19 05:34S 29°52' E 031°02'0 0.0
2018-Jul-19 05:10S 29°52' E 031°02'0 0.0
2018-Jul-19 04:58S 29°52' E 031°02'0 0.0
2018-Jul-19 04:16S 29°52' E 031°02'0 0.0
2018-Jul-19 03:58S 29°52' E 031°02'0 0.0
2018-Jul-19 03:28S 29°52' E 031°02'0 0.0
2018-Jul-19 02:58S 29°52' E 031°02'0 0.0
2018-Jul-19 02:10S 29°52' E 031°02'0 0.0
2018-Jul-19 01:58S 29°52' E 031°02'0 0.0
2018-Jul-19 01:28S 29°52' E 031°02'0 0.0
2018-Jul-19 00:52S 29°52' E 031°02'0 0.0
2018-Jul-19 00:28S 29°52' E 031°02'0 0.0
2018-Jul-18 23:58S 29°52' E 031°02'0 0.0
2018-Jul-18 23:28S 29°52' E 031°02'0 0.0
2018-Jul-18 22:46S 29°52' E 031°02'0 0.0
2018-Jul-18 22:28S 29°52' E 031°02'0 0.0
2018-Jul-18 21:52S 29°52' E 031°02'0 0.0
2018-Jul-18 21:28S 29°52' E 031°02'0 0.0
2018-Jul-18 20:58S 29°52' E 031°02'0 0.0
2018-Jul-18 20:28S 29°52' E 031°02'0 0.1
2018-Jul-18 20:00S 29°52' E 031°02'1 2.3
2018-Jul-18 19:29S 29°52' E 031°03'4 7.8
2018-Jul-18 19:00S 29°49' E 031°06'2 3.3
2018-Jul-18 18:30S 29°49' E 031°08'4 7.6
2018-Jul-18 18:00S 29°49' E 031°13'611.2
2018-Jul-18 17:30S 29°48' E 031°19'611.0
2018-Jul-18 17:00S 29°47' E 031°25'510.9
2018-Jul-18 16:30S 29°45' E 031°32'  
Track history (hours):
 
Tides and Currents Weather Stations Pressure Air Temp Water Temp Dewpoint Dewpoint Depression Visibility Wind Speed Wind Dir Waves Ship Positions

Star Kamila

Last reported at 2018-Jul-19 11:10 UTC. Time now 2018-Jul-21 03:27 UTC.
Position S 30°03' E 031°10'.

Length 229 m; draft 7.1 m.

Type: Cargo ship. MMSI: 538002227.

Date/timePositionNaut miles runAvg speedWind from/ knotsBaromVisibWave heightAir tempDewpointWater temp
2018-Jul-19 11:10S 30°03' E 031°10'210.7
2018-Jul-19 11:00S 30°01' E 031°11'510.1
2018-Jul-19 10:30S 29°56' E 031°10'610.8
2018-Jul-19 09:59S 29°51' E 031°06'3 6.1
2018-Jul-19 09:29S 29°53' E 031°03'1 1.7
2018-Jul-19 08:58S 29°52' E 031°02'0 0.0
2018-Jul-19 07:28S 29°52' E 031°02'0 0.0
2018-Jul-19 06:22S 29°52' E 031°02'0 0.0
2018-Jul-19 05:34S 29°52' E 031°02'0 0.0
2018-Jul-19 05:10S 29°52' E 031°02'0 0.0
2018-Jul-19 04:58S 29°52' E 031°02'0 0.0
2018-Jul-19 04:16S 29°52' E 031°02'0 0.0
2018-Jul-19 03:58S 29°52' E 031°02'0 0.0
2018-Jul-19 03:28S 29°52' E 031°02'0 0.0
2018-Jul-19 02:58S 29°52' E 031°02'0 0.0
2018-Jul-19 02:10S 29°52' E 031°02'0 0.0
2018-Jul-19 01:58S 29°52' E 031°02'0 0.0
2018-Jul-19 01:28S 29°52' E 031°02'0 0.0
2018-Jul-19 00:52S 29°52' E 031°02'0 0.0
2018-Jul-19 00:28S 29°52' E 031°02'0 0.0
2018-Jul-18 23:58S 29°52' E 031°02'0 0.0
2018-Jul-18 23:28S 29°52' E 031°02'0 0.0
2018-Jul-18 22:46S 29°52' E 031°02'0 0.0
2018-Jul-18 22:28S 29°52' E 031°02'0 0.0
2018-Jul-18 21:52S 29°52' E 031°02'0 0.0
2018-Jul-18 21:28S 29°52' E 031°02'0 0.0
2018-Jul-18 20:58S 29°52' E 031°02'0 0.0
2018-Jul-18 20:28S 29°52' E 031°02'0 0.1
2018-Jul-18 20:00S 29°52' E 031°02'1 2.3
2018-Jul-18 19:29S 29°52' E 031°03'4 7.8
2018-Jul-18 19:00S 29°49' E 031°06'2 3.3
2018-Jul-18 18:30S 29°49' E 031°08'4 7.6
2018-Jul-18 18:00S 29°49' E 031°13'611.2
2018-Jul-18 17:30S 29°48' E 031°19'611.0
2018-Jul-18 17:00S 29°47' E 031°25'510.9
2018-Jul-18 16:30S 29°45' E 031°32'  

Dump ship's entire track history